sensor_id;sensor_type;location;lat;lon;timestamp;pressure;altitude;pressure_sealevel;temperature;humidity
20455;BME280;10386;54.314;10.022;2023-05-03T00:01:36;102982.78;;;4.45;100.00
20455;BME280;10386;54.314;10.022;2023-05-03T00:04:03;102991.66;;;4.53;100.00
20455;BME280;10386;54.314;10.022;2023-05-03T00:06:30;102988.09;;;4.51;100.00
20455;BME280;10386;54.314;10.022;2023-05-03T00:08:57;102986.31;;;4.50;100.00
20455;BME280;10386;54.314;10.022;2023-05-03T00:11:23;102980.13;;;4.43;100.00
20455;BME280;10386;54.314;10.022;2023-05-03T00:13:50;102982.81;;;4.42;100.00
20455;BME280;10386;54.314;10.022;2023-05-03T00:16:18;102978.19;;;4.54;100.00
20455;BME280;10386;54.314;10.022;2023-05-03T00:18:44;102986.31;;;4.50;100.00
20455;BME280;10386;54.314;10.022;2023-05-03T00:21:13;102989.06;;;4.45;100.00
20455;BME280;10386;54.314;10.022;2023-05-03T00:23:40;102994.50;;;4.42;100.00
20455;BME280;10386;54.314;10.022;2023-05-03T00:26:07;102991.75;;;4.44;100.00
20455;BME280;10386;54.314;10.022;2023-05-03T00:28:34;102984.63;;;4.41;100.00
20455;BME280;10386;54.314;10.022;2023-05-03T00:31:10;102985.59;;;4.37;100.00
20455;BME280;10386;54.314;10.022;2023-05-03T00:33:37;102988.16;;;4.46;100.00
20455;BME280;10386;54.314;10.022;2023-05-03T00:36:08;102987.34;;;4.40;100.00
20455;BME280;10386;54.314;10.022;2023-05-03T00:38:35;102982.88;;;4.39;100.00
20455;BME280;10386;54.314;10.022;2023-05-03T00:41:03;102990.28;;;4.17;100.00
20455;BME280;10386;54.314;10.022;2023-05-03T00:43:30;102997.44;;;4.20;100.00
20455;BME280;10386;54.314;10.022;2023-05-03T00:46:01;102992.06;;;4.20;100.00
20455;BME280;10386;54.314;10.022;2023-05-03T00:48:43;102990.28;;;4.17;100.00
20455;BME280;10386;54.314;10.022;2023-05-03T00:51:12;102997.53;;;4.09;100.00
20455;BME280;10386;54.314;10.022;2023-05-03T00:53:41;103002.91;;;4.09;100.00
20455;BME280;10386;54.314;10.022;2023-05-03T00:56:08;102996.63;;;4.10;100.00
20455;BME280;10386;54.314;10.022;2023-05-03T00:58:35;102993.03;;;4.13;100.00
20455;BME280;10386;54.314;10.022;2023-05-03T01:01:06;102993.97;;;4.09;100.00
20455;BME280;10386;54.314;10.022;2023-05-03T01:03:34;102985.00;;;4.08;100.00
20455;BME280;10386;54.314;10.022;2023-05-03T01:09:11;102986.97;;;3.93;100.00
20455;BME280;10386;54.314;10.022;2023-05-03T01:14:24;102994.16;;;3.90;100.00
20455;BME280;10386;54.314;10.022;2023-05-03T01:16:57;102988.69;;;3.99;100.00
20455;BME280;10386;54.314;10.022;2023-05-03T01:19:32;102987.94;;;3.86;100.00
20455;BME280;10386;54.314;10.022;2023-05-03T01:24:35;102986.94;;;3.96;100.00
20455;BME280;10386;54.314;10.022;2023-05-03T01:27:04;102973.47;;;3.98;100.00
20455;BME280;10386;54.314;10.022;2023-05-03T01:29:31;102979.81;;;3.92;100.00
20455;BME280;10386;54.314;10.022;2023-05-03T01:32:02;102987.03;;;3.87;100.00
20455;BME280;10386;54.314;10.022;2023-05-03T01:34:42;102978.06;;;3.88;100.00
20455;BME280;10386;54.314;10.022;2023-05-03T01:37:12;102984.38;;;3.81;100.00
20455;BME280;10386;54.314;10.022;2023-05-03T01:42:09;102980.81;;;3.81;100.00
20455;BME280;10386;54.314;10.022;2023-05-03T01:44:37;102979.00;;;3.83;100.00
20455;BME280;10386;54.314;10.022;2023-05-03T01:47:06;102987.88;;;3.91;100.00
20455;BME280;10386;54.314;10.022;2023-05-03T01:49:33;102975.41;;;3.85;100.00
20455;BME280;10386;54.314;10.022;2023-05-03T01:52:00;102975.38;;;3.87;100.00
20455;BME280;10386;54.314;10.022;2023-05-03T01:54:27;102981.66;;;3.86;100.00
20455;BME280;10386;54.314;10.022;2023-05-03T01:56:54;102982.63;;;3.77;100.00
20455;BME280;10386;54.314;10.022;2023-05-03T01:59:20;102978.28;;;3.66;100.00
20455;BME280;10386;54.314;10.022;2023-05-03T02:01:47;102981.03;;;3.60;100.00
20455;BME280;10386;54.314;10.022;2023-05-03T02:04:14;102972.94;;;3.63;100.00
20455;BME280;10386;54.314;10.022;2023-05-03T02:06:41;102971.19;;;3.57;100.00
20455;BME280;10386;54.314;10.022;2023-05-03T02:09:08;102975.63;;;3.63;100.00
20455;BME280;10386;54.314;10.022;2023-05-03T02:11:34;102973.81;;;3.63;100.00
20455;BME280;10386;54.314;10.022;2023-05-03T02:14:01;102982.75;;;3.67;100.00
20455;BME280;10386;54.314;10.022;2023-05-03T02:16:28;102973.81;;;3.63;100.00
20455;BME280;10386;54.314;10.022;2023-05-03T02:18:55;102981.03;;;3.60;100.00
20455;BME280;10386;54.314;10.022;2023-05-03T02:21:25;102981.97;;;3.51;100.00
20455;BME280;10386;54.314;10.022;2023-05-03T02:23:52;102991.13;;;3.26;100.00
20455;BME280;10386;54.314;10.022;2023-05-03T02:26:19;102985.75;;;3.25;100.00
20455;BME280;10386;54.314;10.022;2023-05-03T02:28:46;102990.13;;;3.38;100.00
20455;BME280;10386;54.314;10.022;2023-05-03T02:31:13;102988.47;;;3.19;100.00
20455;BME280;10386;54.314;10.022;2023-05-03T02:33:39;102983.97;;;3.25;100.00
20455;BME280;10386;54.314;10.022;2023-05-03T02:36:06;102989.34;;;3.25;100.00
20455;BME280;10386;54.314;10.022;2023-05-03T02:38:33;102981.25;;;3.27;100.00
20455;BME280;10386;54.314;10.022;2023-05-03T02:41:00;102982.16;;;3.30;100.00
20455;BME280;10386;54.314;10.022;2023-05-03T02:43:27;102980.38;;;3.29;100.00
20455;BME280;10386;54.314;10.022;2023-05-03T02:45:53;102981.31;;;3.21;100.00
20455;BME280;10386;54.314;10.022;2023-05-03T02:48:22;102985.00;;;3.06;100.00
20455;BME280;10386;54.314;10.022;2023-05-03T02:50:49;102979.66;;;3.02;100.00
20455;BME280;10386;54.314;10.022;2023-05-03T02:53:16;102973.41;;;3.01;100.00
20455;BME280;10386;54.314;10.022;2023-05-03T02:55:43;102972.56;;;2.92;100.00
20455;BME280;10386;54.314;10.022;2023-05-03T02:58:10;102984.19;;;2.89;100.00
20455;BME280;10386;54.314;10.022;2023-05-03T03:00:36;102976.06;;;3.03;100.00
20455;BME280;10386;54.314;10.022;2023-05-03T03:03:07;102976.97;;;3.02;100.00
20455;BME280;10386;54.314;10.022;2023-05-03T03:05:34;102979.75;;;2.82;100.00
20455;BME280;10386;54.314;10.022;2023-05-03T03:08:01;102975.25;;;2.87;100.00
20455;BME280;10386;54.314;10.022;2023-05-03T03:10:29;102984.25;;;2.77;100.00
20455;BME280;10386;54.314;10.022;2023-05-03T03:12:57;102989.63;;;2.77;100.00
20455;BME280;10386;54.314;10.022;2023-05-03T03:15:23;102984.34;;;2.66;100.00
20455;BME280;10386;54.314;10.022;2023-05-03T03:17:51;102980.78;;;2.61;100.00
20455;BME280;10386;54.314;10.022;2023-05-03T03:20:23;102990.66;;;2.48;100.00
20455;BME280;10386;54.314;10.022;2023-05-03T03:22:50;102989.75;;;2.58;100.00
20455;BME280;10386;54.314;10.022;2023-05-03T03:25:19;102980.81;;;2.47;100.00
20455;BME280;10386;54.314;10.022;2023-05-03T03:27:46;102988.03;;;2.35;100.00
20455;BME280;10386;54.314;10.022;2023-05-03T03:30:13;102980.91;;;2.37;100.00
20455;BME280;10386;54.314;10.022;2023-05-03T03:32:40;102983.53;;;2.41;100.00
20455;BME280;10386;54.314;10.022;2023-05-03T03:35:08;102983.53;;;2.43;100.00
20455;BME280;10386;54.314;10.022;2023-05-03T03:37:36;102980.81;;;2.47;100.00
20455;BME280;10386;54.314;10.022;2023-05-03T03:40:04;102976.34;;;2.55;100.00
20455;BME280;10386;54.314;10.022;2023-05-03T03:42:31;102975.44;;;2.62;100.00
20455;BME280;10386;54.314;10.022;2023-05-03T03:44:58;102971.94;;;2.44;100.00
20455;BME280;10386;54.314;10.022;2023-05-03T03:47:24;102978.13;;;2.53;100.00
20455;BME280;10386;54.314;10.022;2023-05-03T03:49:52;102978.09;;;2.62;100.00
20455;BME280;10386;54.314;10.022;2023-05-03T03:52:19;102981.69;;;2.61;100.00
20455;BME280;10386;54.314;10.022;2023-05-03T03:54:45;102986.19;;;2.56;100.00
20455;BME280;10386;54.314;10.022;2023-05-03T03:57:12;102985.25;;;2.63;100.00
20455;BME280;10386;54.314;10.022;2023-05-03T03:59:39;102977.16;;;2.72;100.00
20455;BME280;10386;54.314;10.022;2023-05-03T04:02:06;102980.75;;;2.68;100.00
20455;BME280;10386;54.314;10.022;2023-05-03T04:04:33;102968.28;;;2.61;100.00
20455;BME280;10386;54.314;10.022;2023-05-03T04:07:03;102976.38;;;2.48;100.00
20455;BME280;10386;54.314;10.022;2023-05-03T04:09:30;102977.19;;;2.65;100.00
20455;BME280;10386;54.314;10.022;2023-05-03T04:11:57;102980.75;;;2.68;100.00
20455;BME280;10386;54.314;10.022;2023-05-03T04:14:24;102975.31;;;2.78;100.00
20455;BME280;10386;54.314;10.022;2023-05-03T04:16:50;102973.69;;;2.55;100.00
20455;BME280;10386;54.314;10.022;2023-05-03T04:19:17;102985.25;;;2.54;100.00
20455;BME280;10386;54.314;10.022;2023-05-03T04:21:44;102986.00;;;2.87;100.00
20455;BME280;10386;54.314;10.022;2023-05-03T04:24:14;102985.88;;;3.07;100.00
20455;BME280;10386;54.314;10.022;2023-05-03T04:26:41;102986.78;;;3.07;100.00
20455;BME280;10386;54.314;10.022;2023-05-03T04:29:08;102976.00;;;3.13;100.00
20455;BME280;10386;54.314;10.022;2023-05-03T04:31:37;102977.69;;;3.29;100.00
20455;BME280;10386;54.314;10.022;2023-05-03T04:34:05;102988.16;;;3.61;100.00
20455;BME280;10386;54.314;10.022;2023-05-03T04:36:33;102986.16;;;3.84;100.00
20455;BME280;10386;54.314;10.022;2023-05-03T04:38:59;102991.38;;;3.99;100.00
20455;BME280;10386;54.314;10.022;2023-05-03T04:41:26;102977.97;;;3.96;100.00
20455;BME280;10386;54.314;10.022;2023-05-03T04:43:53;102980.47;;;4.13;100.00
20455;BME280;10386;54.314;10.022;2023-05-03T04:46:20;102980.25;;;4.34;100.00
20455;BME280;10386;54.314;10.022;2023-05-03T04:48:47;102983.63;;;4.50;100.00
20455;BME280;10386;54.314;10.022;2023-05-03T04:51:14;102984.38;;;4.61;100.00
20455;BME280;10386;54.314;10.022;2023-05-03T04:53:41;102979.66;;;4.79;100.00
20455;BME280;10386;54.314;10.022;2023-05-03T04:56:07;102979.47;;;4.93;100.00
20455;BME280;10386;54.314;10.022;2023-05-03T04:58:34;102976.59;;;5.05;100.00
20455;BME280;10386;54.314;10.022;2023-05-03T05:01:03;102970.06;;;5.22;100.00
20455;BME280;10386;54.314;10.022;2023-05-03T05:03:31;102979.78;;;5.32;100.00
20455;BME280;10386;54.314;10.022;2023-05-03T05:05:58;102974.19;;;5.42;100.00
20455;BME280;10386;54.314;10.022;2023-05-03T05:08:25;102968.91;;;5.37;100.00
20455;BME280;10386;54.314;10.022;2023-05-03T05:10:52;102967.72;;;5.55;100.00
20455;BME280;10386;54.314;10.022;2023-05-03T05:13:18;102975.44;;;5.75;100.00
20455;BME280;10386;54.314;10.022;2023-05-03T05:15:45;102982.59;;;5.80;100.00
20455;BME280;10386;54.314;10.022;2023-05-03T05:18:12;102980.41;;;6.02;100.00
20455;BME280;10386;54.314;10.022;2023-05-03T05:20:39;102983.84;;;6.08;100.00
20455;BME280;10386;54.314;10.022;2023-05-03T05:23:05;102989.00;;;6.22;100.00
20455;BME280;10386;54.314;10.022;2023-05-03T05:25:32;102995.03;;;6.34;100.00
20455;BME280;10386;54.314;10.022;2023-05-03T05:27:59;102994.94;;;6.40;100.00
20455;BME280;10386;54.314;10.022;2023-05-03T05:30:25;102998.25;;;6.53;100.00
20455;BME280;10386;54.314;10.022;2023-05-03T05:32:52;102997.22;;;6.60;100.00
20455;BME280;10386;54.314;10.022;2023-05-03T05:35:19;103002.25;;;6.76;100.00
20455;BME280;10386;54.314;10.022;2023-05-03T05:37:46;103004.69;;;6.88;100.00
20455;BME280;10386;54.314;10.022;2023-05-03T05:40:14;103020.81;;;6.92;100.00
20455;BME280;10386;54.314;10.022;2023-05-03T05:42:40;103020.81;;;6.92;100.00
20455;BME280;10386;54.314;10.022;2023-05-03T05:45:08;103019.44;;;7.13;100.00
20455;BME280;10386;54.314;10.022;2023-05-03T05:47:34;103034.06;;;7.04;100.00
20455;BME280;10386;54.314;10.022;2023-05-03T05:50:01;103026.75;;;7.08;100.00
20455;BME280;10386;54.314;10.022;2023-05-03T05:52:37;103037.09;;;7.29;100.00
20455;BME280;10386;54.314;10.022;2023-05-03T05:55:04;103040.19;;;7.12;100.00
20455;BME280;10386;54.314;10.022;2023-05-03T05:57:32;103042.47;;;7.30;100.00
20455;BME280;10386;54.314;10.022;2023-05-03T05:59:59;103044.88;;;7.42;100.00
20455;BME280;10386;54.314;10.022;2023-05-03T06:02:26;103049.50;;;7.37;100.00
20455;BME280;10386;54.314;10.022;2023-05-03T06:04:53;103048.63;;;7.37;100.00
20455;BME280;10386;54.314;10.022;2023-05-03T06:07:20;103053.84;;;7.44;100.00
20455;BME280;10386;54.314;10.022;2023-05-03T06:09:47;103064.28;;;7.59;100.00
20455;BME280;10386;54.314;10.022;2023-05-03T06:12:14;103062.59;;;7.55;100.00
20455;BME280;10386;54.314;10.022;2023-05-03T06:14:40;103059.84;;;7.57;100.00
20455;BME280;10386;54.314;10.022;2023-05-03T06:17:27;103067.34;;;7.82;100.00
20455;BME280;10386;54.314;10.022;2023-05-03T06:19:54;103063.13;;;8.06;100.00
20455;BME280;10386;54.314;10.022;2023-05-03T06:22:21;103073.28;;;8.32;100.00
20455;BME280;10386;54.314;10.022;2023-05-03T06:24:48;103067.44;;;9.67;100.00
20455;BME280;10386;54.314;10.022;2023-05-03T06:27:17;103077.88;;;10.34;100.00
20455;BME280;10386;54.314;10.022;2023-05-03T06:29:44;103077.13;;;10.55;100.00
20455;BME280;10386;54.314;10.022;2023-05-03T06:32:11;103071.91;;;11.44;100.00
20455;BME280;10386;54.314;10.022;2023-05-03T06:34:38;103081.38;;;11.34;100.00
20455;BME280;10386;54.314;10.022;2023-05-03T06:37:04;103079.66;;;11.31;100.00
20455;BME280;10386;54.314;10.022;2023-05-03T06:39:31;103075.19;;;11.75;100.00
20455;BME280;10386;54.314;10.022;2023-05-03T06:41:58;103066.75;;;11.82;100.00
20455;BME280;10386;54.314;10.022;2023-05-03T06:44:25;103071.25;;;11.14;100.00
20455;BME280;10386;54.314;10.022;2023-05-03T06:46:52;103064.41;;;11.73;100.00
20455;BME280;10386;54.314;10.022;2023-05-03T06:49:19;103062.38;;;11.09;100.00
20455;BME280;10386;54.314;10.022;2023-05-03T06:51:45;103061.31;;;11.36;100.00
20455;BME280;10386;54.314;10.022;2023-05-03T06:54:12;103053.56;;;11.49;100.00
20455;BME280;10386;54.314;10.022;2023-05-03T06:56:40;103049.72;;;11.77;100.00
20455;BME280;10386;54.314;10.022;2023-05-03T06:59:06;103038.84;;;11.54;100.00
20455;BME280;10386;54.314;10.022;2023-05-03T07:01:36;103061.69;;;10.56;100.00
20455;BME280;10386;54.314;10.022;2023-05-03T07:04:03;103064.22;;;11.09;100.00
20455;BME280;10386;54.314;10.022;2023-05-03T07:06:30;103049.69;;;11.10;100.00
20455;BME280;10386;54.314;10.022;2023-05-03T07:09:09;103056.50;;;10.24;100.00
20455;BME280;10386;54.314;10.022;2023-05-03T07:11:37;103066.91;;;9.84;100.00
20455;BME280;10386;54.314;10.022;2023-05-03T07:14:08;103069.84;;;9.49;100.00
20455;BME280;10386;54.314;10.022;2023-05-03T07:16:35;103080.22;;;9.35;100.00
20455;BME280;10386;54.314;10.022;2023-05-03T07:19:02;103076.81;;;9.29;100.00
20455;BME280;10386;54.314;10.022;2023-05-03T07:21:28;103078.13;;;9.45;100.00
20455;BME280;10386;54.314;10.022;2023-05-03T07:23:55;103081.94;;;9.66;100.00
20455;BME280;10386;54.314;10.022;2023-05-03T07:26:22;103062.22;;;9.61;100.00
20455;BME280;10386;54.314;10.022;2023-05-03T07:28:49;103068.22;;;9.98;100.00
20455;BME280;10386;54.314;10.022;2023-05-03T07:31:15;103065.19;;;10.59;100.00
20455;BME280;10386;54.314;10.022;2023-05-03T07:33:42;103049.72;;;9.83;100.00
20455;BME280;10386;54.314;10.022;2023-05-03T07:36:10;103059.34;;;9.66;100.00
20455;BME280;10386;54.314;10.022;2023-05-03T07:38:37;103059.06;;;9.48;100.00
20455;BME280;10386;54.314;10.022;2023-05-03T07:41:03;103057.22;;;9.19;100.00
20455;BME280;10386;54.314;10.022;2023-05-03T07:43:30;103069.00;;;9.18;100.00
20455;BME280;10386;54.314;10.022;2023-05-03T07:45:57;103060.34;;;9.35;100.00
20455;BME280;10386;54.314;10.022;2023-05-03T07:48:24;103044.75;;;9.43;100.00
20455;BME280;10386;54.314;10.022;2023-05-03T07:50:50;103042.97;;;9.42;100.00
20455;BME280;10386;54.314;10.022;2023-05-03T07:53:17;103038.81;;;10.12;100.00
20455;BME280;10386;54.314;10.022;2023-05-03T07:55:44;103032.97;;;10.24;100.00
20455;BME280;10386;54.314;10.022;2023-05-03T07:58:11;103030.41;;;9.66;100.00
20455;BME280;10386;54.314;10.022;2023-05-03T08:00:38;103036.91;;;9.61;100.00
20455;BME280;10386;54.314;10.022;2023-05-03T08:03:04;103054.13;;;9.60;100.00
20455;BME280;10386;54.314;10.022;2023-05-03T08:05:32;103075.63;;;9.66;100.00
20455;BME280;10386;54.314;10.022;2023-05-03T08:08:02;103079.44;;;9.60;100.00
20455;BME280;10386;54.314;10.022;2023-05-03T08:10:29;103082.00;;;9.36;100.00
20455;BME280;10386;54.314;10.022;2023-05-03T08:12:56;103077.38;;;9.40;100.00
20455;BME280;10386;54.314;10.022;2023-05-03T08:15:22;103088.78;;;9.51;100.00
20455;BME280;10386;54.314;10.022;2023-05-03T08:17:53;103085.56;;;9.38;100.00
20455;BME280;10386;54.314;10.022;2023-05-03T08:20:22;103094.50;;;9.42;100.00
20455;BME280;10386;54.314;10.022;2023-05-03T08:22:52;103101.69;;;9.70;100.00
20455;BME280;10386;54.314;10.022;2023-05-03T08:25:22;103078.25;;;9.40;100.00
20455;BME280;10386;54.314;10.022;2023-05-03T08:27:51;103069.50;;;9.59;100.00
20455;BME280;10386;54.314;10.022;2023-05-03T08:30:21;103058.66;;;9.59;100.00
20455;BME280;10386;54.314;10.022;2023-05-03T08:32:48;103075.34;;;10.02;100.00
20455;BME280;10386;54.314;10.022;2023-05-03T08:35:15;103067.09;;;10.05;100.00
20455;BME280;10386;54.314;10.022;2023-05-03T08:37:42;103071.09;;;11.19;100.00
20455;BME280;10386;54.314;10.022;2023-05-03T08:40:10;103033.19;;;10.67;100.00
20455;BME280;10386;54.314;10.022;2023-05-03T08:42:40;103039.16;;;10.28;100.00
20455;BME280;10386;54.314;10.022;2023-05-03T08:45:09;103042.63;;;10.57;100.00
20455;BME280;10386;54.314;10.022;2023-05-03T08:47:37;103042.84;;;10.51;100.00
20455;BME280;10386;54.314;10.022;2023-05-03T08:50:13;103027.53;;;10.49;100.00
20455;BME280;10386;54.314;10.022;2023-05-03T08:52:41;103024.22;;;10.65;100.00
20455;BME280;10386;54.314;10.022;2023-05-03T08:55:09;103021.53;;;10.88;100.00
20455;BME280;10386;54.314;10.022;2023-05-03T08:57:36;103016.41;;;11.03;100.00
20455;BME280;10386;54.314;10.022;2023-05-03T09:00:04;103000.59;;;10.67;100.00
20455;BME280;10386;54.314;10.022;2023-05-03T09:02:33;103010.59;;;10.67;100.00
20455;BME280;10386;54.314;10.022;2023-05-03T09:05:02;103021.59;;;11.09;100.00
20455;BME280;10386;54.314;10.022;2023-05-03T09:07:31;103004.34;;;10.88;100.00
20455;BME280;10386;54.314;10.022;2023-05-03T09:09:59;103007.59;;;10.97;100.00
20455;BME280;10386;54.314;10.022;2023-05-03T09:12:36;103017.34;;;11.02;100.00
20455;BME280;10386;54.314;10.022;2023-05-03T09:15:04;103011.53;;;11.34;100.00
20455;BME280;10386;54.314;10.022;2023-05-03T09:17:32;103006.03;;;11.59;100.00
20455;BME280;10386;54.314;10.022;2023-05-03T09:19:59;103005.22;;;11.57;100.00
20455;BME280;10386;54.314;10.022;2023-05-03T09:22:30;102994.13;;;10.94;100.00
20455;BME280;10386;54.314;10.022;2023-05-03T09:24:59;103008.00;;;10.87;100.00
20455;BME280;10386;54.314;10.022;2023-05-03T09:27:26;103008.81;;;11.34;100.00
20455;BME280;10386;54.314;10.022;2023-05-03T09:29:53;103018.09;;;10.83;100.00
20455;BME280;10386;54.314;10.022;2023-05-03T09:32:21;103026.91;;;11.12;100.00
20455;BME280;10386;54.314;10.022;2023-05-03T09:35:07;103034.63;;;10.77;100.00
20455;BME280;10386;54.314;10.022;2023-05-03T09:37:37;103033.59;;;11.04;100.00
20455;BME280;10386;54.314;10.022;2023-05-03T09:40:05;103030.84;;;10.81;100.00
20455;BME280;10386;54.314;10.022;2023-05-03T09:42:33;103033.22;;;10.90;100.00
20455;BME280;10386;54.314;10.022;2023-05-03T09:45:00;103039.81;;;11.53;100.00
20455;BME280;10386;54.314;10.022;2023-05-03T09:47:27;103012.50;;;11.56;100.00
20455;BME280;10386;54.314;10.022;2023-05-03T09:49:57;103007.69;;;11.63;100.00
20455;BME280;10386;54.314;10.022;2023-05-03T09:52:28;103008.31;;;11.91;100.00
20455;BME280;10386;54.314;10.022;2023-05-03T09:54:56;103010.44;;;11.83;100.00
20455;BME280;10386;54.314;10.022;2023-05-03T09:57:23;103027.25;;;11.72;100.00
20455;BME280;10386;54.314;10.022;2023-05-03T09:59:50;103016.97;;;11.79;100.00
20455;BME280;10386;54.314;10.022;2023-05-03T10:02:17;102999.91;;;11.75;100.00
20455;BME280;10386;54.314;10.022;2023-05-03T10:04:50;102997.88;;;12.22;100.00
20455;BME280;10386;54.314;10.022;2023-05-03T10:07:20;102985.22;;;12.21;100.00
20455;BME280;10386;54.314;10.022;2023-05-03T10:09:50;102988.69;;;11.83;100.00
20455;BME280;10386;54.314;10.022;2023-05-03T10:12:18;102992.75;;;11.73;100.00
20455;BME280;10386;54.314;10.022;2023-05-03T10:14:46;103006.91;;;11.81;100.00
20455;BME280;10386;54.314;10.022;2023-05-03T10:17:26;103013.03;;;11.86;100.00
20455;BME280;10386;54.314;10.022;2023-05-03T10:25:33;103022.81;;;11.47;100.00
20455;BME280;10386;54.314;10.022;2023-05-03T10:28:01;103023.44;;;11.32;100.00
20455;BME280;10386;54.314;10.022;2023-05-03T10:30:30;103026.50;;;11.46;100.00
20455;BME280;10386;54.314;10.022;2023-05-03T10:33:00;103028.22;;;11.48;100.00
20455;BME280;10386;54.314;10.022;2023-05-03T10:35:53;103017.81;;;11.59;100.00
20455;BME280;10386;54.314;10.022;2023-05-03T10:38:27;103016.91;;;11.59;100.00
20455;BME280;10386;54.314;10.022;2023-05-03T10:40:55;103025.91;;;12.04;100.00
20455;BME280;10386;54.314;10.022;2023-05-03T10:46:04;103006.94;;;11.59;100.00
20455;BME280;10386;54.314;10.022;2023-05-03T10:48:32;103013.78;;;11.69;100.00
20455;BME280;10386;54.314;10.022;2023-05-03T10:53:56;103015.53;;;11.70;100.00
20455;BME280;10386;54.314;10.022;2023-05-03T10:56:22;103025.00;;;11.82;100.00
20455;BME280;10386;54.314;10.022;2023-05-03T10:58:49;103026.91;;;11.80;100.00
20455;BME280;10386;54.314;10.022;2023-05-03T11:01:17;103019.44;;;11.85;100.00
20455;BME280;10386;54.314;10.022;2023-05-03T11:06:34;103004.00;;;12.46;100.00
20455;BME280;10386;54.314;10.022;2023-05-03T11:09:07;102982.44;;;12.42;100.00
20455;BME280;10386;54.314;10.022;2023-05-03T11:11:37;102963.91;;;11.89;100.00
20455;BME280;10386;54.314;10.022;2023-05-03T11:14:05;102981.75;;;12.37;100.00
20455;BME280;10386;54.314;10.022;2023-05-03T11:16:33;102974.00;;;12.66;100.00
20455;BME280;10386;54.314;10.022;2023-05-03T11:19:02;102965.41;;;12.95;100.00
20455;BME280;10386;54.314;10.022;2023-05-03T11:21:29;102927.19;;;12.38;100.00
20455;BME280;10386;54.314;10.022;2023-05-03T11:23:57;102948.13;;;12.76;100.00
20455;BME280;10386;54.314;10.022;2023-05-03T11:26:24;102945.97;;;12.44;100.00
20455;BME280;10386;54.314;10.022;2023-05-03T11:28:54;102920.53;;;12.26;100.00
20455;BME280;10386;54.314;10.022;2023-05-03T11:31:21;102934.06;;;12.07;100.00
20455;BME280;10386;54.314;10.022;2023-05-03T11:33:48;102938.47;;;12.49;100.00
20455;BME280;10386;54.314;10.022;2023-05-03T11:36:16;102920.25;;;12.12;100.00
20455;BME280;10386;54.314;10.022;2023-05-03T11:38:43;102961.09;;;11.92;100.00
20455;BME280;10386;54.314;10.022;2023-05-03T11:41:14;103000.59;;;12.22;100.00
20455;BME280;10386;54.314;10.022;2023-05-03T11:43:47;103001.84;;;12.35;100.00
20455;BME280;10386;54.314;10.022;2023-05-03T11:46:24;102995.69;;;12.30;100.00
20455;BME280;10386;54.314;10.022;2023-05-03T11:48:53;102977.44;;;11.92;100.00
20455;BME280;10386;54.314;10.022;2023-05-03T11:51:24;102982.06;;;12.10;100.00
20455;BME280;10386;54.314;10.022;2023-05-03T11:53:52;102982.06;;;12.10;100.00
20455;BME280;10386;54.314;10.022;2023-05-03T11:56:19;102999.81;;;11.98;100.00
20455;BME280;10386;54.314;10.022;2023-05-03T11:58:56;103015.47;;;11.93;100.00
20455;BME280;10386;54.314;10.022;2023-05-03T12:01:25;103005.06;;;12.03;100.00
20455;BME280;10386;54.314;10.022;2023-05-03T12:06:21;103010.38;;;12.06;100.00
20455;BME280;10386;54.314;10.022;2023-05-03T12:08:49;103017.88;;;12.01;100.00
20455;BME280;10386;54.314;10.022;2023-05-03T12:11:17;102992.84;;;11.48;100.00
20455;BME280;10386;54.314;10.022;2023-05-03T12:13:56;103030.16;;;11.89;100.00
20455;BME280;10386;54.314;10.022;2023-05-03T12:16:27;103027.81;;;12.02;100.00
20455;BME280;10386;54.314;10.022;2023-05-03T12:19:11;103020.91;;;11.72;100.00
20455;BME280;10386;54.314;10.022;2023-05-03T12:21:48;103033.19;;;11.82;100.00
20455;BME280;10386;54.314;10.022;2023-05-03T12:24:35;103012.31;;;11.38;100.00
20455;BME280;10386;54.314;10.022;2023-05-03T12:27:04;103036.75;;;11.62;100.00
20455;BME280;10386;54.314;10.022;2023-05-03T12:29:34;103016.78;;;11.62;100.00
20455;BME280;10386;54.314;10.022;2023-05-03T12:32:01;103011.97;;;11.45;100.00
20455;BME280;10386;54.314;10.022;2023-05-03T12:34:30;103035.28;;;11.97;100.00
20455;BME280;10386;54.314;10.022;2023-05-03T12:37:02;103042.72;;;12.13;100.00
20455;BME280;10386;54.314;10.022;2023-05-03T12:39:31;103014.81;;;12.28;100.00
20455;BME280;10386;54.314;10.022;2023-05-03T12:41:59;103008.38;;;12.31;100.00
20455;BME280;10386;54.314;10.022;2023-05-03T12:44:31;102994.81;;;12.29;100.00
20455;BME280;10386;54.314;10.022;2023-05-03T12:47:01;102989.44;;;12.47;100.00
20455;BME280;10386;54.314;10.022;2023-05-03T12:49:29;103000.06;;;12.53;100.00
20455;BME280;10386;54.314;10.022;2023-05-03T12:51:56;102980.03;;;12.54;100.00
20455;BME280;10386;54.314;10.022;2023-05-03T12:54:28;102972.13;;;12.48;100.00
20455;BME280;10386;54.314;10.022;2023-05-03T12:57:00;102938.72;;;11.84;100.00
20455;BME280;10386;54.314;10.022;2023-05-03T12:59:35;102954.91;;;11.67;100.00
20455;BME280;10386;54.314;10.022;2023-05-03T13:02:09;102981.03;;;12.12;100.00
20455;BME280;10386;54.314;10.022;2023-05-03T13:04:39;102982.22;;;12.07;100.00
20455;BME280;10386;54.314;10.022;2023-05-03T13:07:09;102974.63;;;12.13;100.00
20455;BME280;10386;54.314;10.022;2023-05-03T13:09:44;102973.34;;;12.02;100.00